createdAt,value
2019-03-09T00:01:01.895Z,8.50
2019-03-09T00:03:36.351Z,8.60
2019-03-09T00:06:10.023Z,8.60
2019-03-09T00:08:43.635Z,8.60
2019-03-09T00:11:18.185Z,8.60
2019-03-09T00:13:51.858Z,8.60
2019-03-09T00:16:25.472Z,8.60
2019-03-09T00:19:00.013Z,8.50
2019-03-09T00:21:34.439Z,8.50
2019-03-09T00:24:09.353Z,8.50
2019-03-09T00:26:46.715Z,8.50
2019-03-09T00:29:36.199Z,8.50
2019-03-09T00:32:11.164Z,8.50
2019-03-09T00:34:44.763Z,8.50
2019-03-09T00:37:18.382Z,8.50
2019-03-09T00:39:52.699Z,8.60
2019-03-09T00:42:26.335Z,8.50
2019-03-09T00:45:00.326Z,8.50
2019-03-09T00:47:33.909Z,8.50
2019-03-09T00:50:07.487Z,8.50
2019-03-09T00:52:41.050Z,8.50
2019-03-09T00:55:14.824Z,8.50
2019-03-09T00:57:48.511Z,8.50
2019-03-09T01:00:22.844Z,8.40
2019-03-09T01:02:56.431Z,8.40
2019-03-09T01:05:30.028Z,8.50
2019-03-09T01:08:03.587Z,8.50
2019-03-09T01:10:37.326Z,8.50
2019-03-09T01:13:10.874Z,8.60
2019-03-09T01:15:44.511Z,8.70
2019-03-09T01:18:18.227Z,8.70
2019-03-09T01:20:51.953Z,8.70
2019-03-09T01:23:25.595Z,8.70
2019-03-09T01:25:59.209Z,8.70
2019-03-09T01:28:32.919Z,8.80
2019-03-09T01:31:07.304Z,8.80
2019-03-09T01:33:41.083Z,8.80
2019-03-09T01:36:16.137Z,8.80
2019-03-09T01:38:49.998Z,8.80
2019-03-09T01:41:23.686Z,8.80
2019-03-09T01:43:57.535Z,8.80
2019-03-09T01:46:31.929Z,8.80
2019-03-09T01:49:06.446Z,8.90
2019-03-09T01:51:40.103Z,8.80
2019-03-09T01:54:13.665Z,8.90
2019-03-09T01:56:48.178Z,8.80
2019-03-09T01:59:21.824Z,8.70
2019-03-09T02:01:55.429Z,8.80
2019-03-09T02:04:28.986Z,8.80
2019-03-09T02:07:02.598Z,8.80
2019-03-09T02:09:36.186Z,8.80
2019-03-09T02:12:09.883Z,8.80
2019-03-09T02:14:43.500Z,8.70
2019-03-09T02:17:17.107Z,8.80
2019-03-09T02:19:50.821Z,8.80
2019-03-09T02:22:24.642Z,8.70
2019-03-09T02:24:58.340Z,8.70
2019-03-09T02:27:32.122Z,8.80
2019-03-09T02:30:11.501Z,8.80
2019-03-09T02:32:45.203Z,8.80
2019-03-09T02:35:18.800Z,8.80
2019-03-09T02:37:52.380Z,8.90
2019-03-09T02:40:26.775Z,8.90
2019-03-09T02:43:00.578Z,8.90
2019-03-09T02:45:34.289Z,8.90
2019-03-09T02:48:07.865Z,8.90
2019-03-09T02:50:41.408Z,8.80
2019-03-09T02:53:15.811Z,8.80
2019-03-09T02:55:49.426Z,8.80
2019-03-09T02:58:22.993Z,8.80
2019-03-09T03:00:59.337Z,8.80
2019-03-09T03:03:33.074Z,8.80
2019-03-09T03:06:06.807Z,8.90
2019-03-09T03:08:40.355Z,8.80
2019-03-09T03:11:14.016Z,8.80
2019-03-09T03:13:47.598Z,8.90
2019-03-09T03:16:21.210Z,8.90
2019-03-09T03:18:54.733Z,9.00
2019-03-09T03:21:28.304Z,9.00
2019-03-09T03:24:02.605Z,9.00
2019-03-09T03:26:36.245Z,9.00
2019-03-09T03:29:09.814Z,9.00
2019-03-09T03:31:43.497Z,9.00
2019-03-09T03:34:17.116Z,9.00
2019-03-09T03:36:50.697Z,9.00
2019-03-09T03:39:25.058Z,9.00
2019-03-09T03:41:58.732Z,9.00
2019-03-09T03:44:32.446Z,9.00
2019-03-09T03:47:06.025Z,9.00
2019-03-09T03:49:39.745Z,9.00
2019-03-09T03:52:14.056Z,9.00
2019-03-09T03:54:47.780Z,9.10
2019-03-09T03:57:21.596Z,9.10
2019-03-09T03:59:55.895Z,9.00
2019-03-09T04:02:30.316Z,9.10
2019-03-09T04:05:04.728Z,9.00
2019-03-09T04:07:38.378Z,9.00
2019-03-09T04:10:11.945Z,9.00
2019-03-09T04:12:45.548Z,9.00
2019-03-09T04:15:19.135Z,9.00
2019-03-09T04:17:52.843Z,9.00
2019-03-09T04:20:26.439Z,9.00
2019-03-09T04:23:00.144Z,9.10
2019-03-09T04:25:33.722Z,9.00
2019-03-09T04:28:07.444Z,9.10
2019-03-09T04:30:40.971Z,9.10
2019-03-09T04:33:15.488Z,9.10
2019-03-09T04:35:49.229Z,9.10
2019-03-09T04:38:22.896Z,9.10
2019-03-09T04:40:56.591Z,9.10
2019-03-09T04:43:30.203Z,9.20
2019-03-09T04:46:03.976Z,9.20
2019-03-09T04:48:37.656Z,9.20
2019-03-09T04:51:11.265Z,9.20
2019-03-09T04:53:44.994Z,9.10
2019-03-09T04:56:18.705Z,9.10
2019-03-09T04:58:52.448Z,9.10
2019-03-09T05:01:26.931Z,9.10
2019-03-09T05:04:32.202Z,9.10
2019-03-09T05:07:07.989Z,9.00
2019-03-09T05:23:04.298Z,8.80
2019-03-09T05:25:37.978Z,8.80
2019-03-09T05:28:11.467Z,8.70
2019-03-09T05:30:45.987Z,8.70
2019-03-09T05:33:19.575Z,8.60
2019-03-09T05:35:53.123Z,8.60
2019-03-09T05:38:26.764Z,8.60
2019-03-09T05:41:01.251Z,8.20
2019-03-09T05:43:34.895Z,8.20
2019-03-09T05:46:08.492Z,8.10
2019-03-09T05:48:43.041Z,8.10
2019-03-09T05:51:16.642Z,8.10
2019-03-09T05:53:50.446Z,8.10
2019-03-09T05:56:24.101Z,8.10
2019-03-09T05:58:57.906Z,8.10
2019-03-09T06:01:31.467Z,8.10
2019-03-09T06:04:05.060Z,8.10
2019-03-09T06:06:38.654Z,8.00
2019-03-09T06:09:12.366Z,8.00
2019-03-09T06:11:46.877Z,8.00
2019-03-09T06:14:20.588Z,8.00
2019-03-09T06:16:54.160Z,8.00
2019-03-09T06:19:27.812Z,8.00
2019-03-09T06:22:01.510Z,8.00
2019-03-09T06:24:35.075Z,8.00
2019-03-09T06:27:08.815Z,8.00
2019-03-09T06:29:42.456Z,8.00
2019-03-09T06:32:27.767Z,8.00
2019-03-09T06:35:01.600Z,8.10
2019-03-09T06:37:35.180Z,8.10
2019-03-09T06:40:08.923Z,8.10
2019-03-09T06:42:42.706Z,8.10
2019-03-09T06:45:16.183Z,8.10
2019-03-09T06:47:49.922Z,8.20
2019-03-09T06:50:24.496Z,8.20
2019-03-09T06:52:58.834Z,8.30
2019-03-09T06:55:32.385Z,8.30
2019-03-09T06:58:06.188Z,8.40
2019-03-09T07:00:40.426Z,8.40
2019-03-09T07:03:14.907Z,8.40
2019-03-09T07:05:48.517Z,8.40
2019-03-09T07:08:22.102Z,8.30
2019-03-09T07:10:56.643Z,8.50
2019-03-09T07:13:31.254Z,8.50
2019-03-09T07:16:05.624Z,8.60
2019-03-09T07:18:39.200Z,8.60
2019-03-09T07:21:12.737Z,8.50
2019-03-09T07:23:46.289Z,8.50
2019-03-09T07:26:19.995Z,8.60
2019-03-09T07:28:53.647Z,8.70
2019-03-09T07:31:27.425Z,8.70
2019-03-09T07:34:09.674Z,8.70
2019-03-09T07:36:43.279Z,8.70
2019-03-09T07:39:17.782Z,8.90
2019-03-09T07:41:51.479Z,9.00
2019-03-09T07:44:25.134Z,9.10
2019-03-09T07:46:58.838Z,9.20
2019-03-09T07:49:33.317Z,9.50
2019-03-09T07:52:19.659Z,9.50
2019-03-09T07:54:53.344Z,9.50
2019-03-09T07:57:27.742Z,9.50
2019-03-09T08:00:02.056Z,9.80
2019-03-09T08:02:35.611Z,9.70
2019-03-09T08:05:09.905Z,10.00
2019-03-09T08:07:43.566Z,10.00
2019-03-09T08:10:22.845Z,10.10
2019-03-09T08:12:56.534Z,10.20
2019-03-09T08:15:30.235Z,10.20
2019-03-09T08:18:03.774Z,10.20
2019-03-09T08:20:37.390Z,10.30
2019-03-09T08:23:11.030Z,10.80
2019-03-09T08:25:44.634Z,10.60
2019-03-09T08:28:18.963Z,10.30
2019-03-09T08:30:53.488Z,10.20
2019-03-09T08:33:27.217Z,10.20
2019-03-09T08:36:00.797Z,10.20
2019-03-09T08:38:34.599Z,10.40
2019-03-09T08:41:08.163Z,10.30
2019-03-09T08:43:42.655Z,10.70
2019-03-09T08:46:16.396Z,10.70
2019-03-09T08:48:50.023Z,10.90
2019-03-09T08:51:23.560Z,11.00
2019-03-09T08:53:57.127Z,10.80
2019-03-09T08:56:30.959Z,10.70
2019-03-09T08:59:04.507Z,10.70
2019-03-09T09:01:38.840Z,10.50
2019-03-09T09:04:12.549Z,10.50
2019-03-09T09:06:46.118Z,10.50
2019-03-09T09:09:19.728Z,10.60
2019-03-09T09:11:53.303Z,10.70
2019-03-09T09:14:27.680Z,10.50
2019-03-09T09:17:01.550Z,10.50
2019-03-09T09:19:35.120Z,10.40
2019-03-09T09:22:08.689Z,10.50
2019-03-09T09:24:42.400Z,10.60
2019-03-09T09:27:15.984Z,10.70
2019-03-09T09:29:49.529Z,10.70
2019-03-09T09:32:23.915Z,10.90
2019-03-09T09:34:57.480Z,10.90
2019-03-09T09:37:31.108Z,10.90
2019-03-09T09:40:04.828Z,11.00
2019-03-09T09:42:38.485Z,11.00
2019-03-09T09:45:12.255Z,10.90
2019-03-09T09:47:46.015Z,10.90
2019-03-09T09:50:20.544Z,10.80
2019-03-09T09:52:54.373Z,10.80
2019-03-09T09:55:27.957Z,10.90
2019-03-09T09:58:01.788Z,10.80
2019-03-09T10:00:35.342Z,10.80
2019-03-09T10:03:09.116Z,10.80
2019-03-09T10:05:42.885Z,10.90
2019-03-09T10:08:16.600Z,10.80
2019-03-09T10:10:50.448Z,10.90
2019-03-09T10:13:24.061Z,10.90
2019-03-09T10:15:57.655Z,11.00
2019-03-09T10:18:31.320Z,11.10
2019-03-09T10:21:05.069Z,11.00
2019-03-09T10:23:38.878Z,10.80
2019-03-09T10:26:12.649Z,10.80
2019-03-09T10:28:46.343Z,10.90
2019-03-09T10:31:20.034Z,10.80
2019-03-09T10:33:53.815Z,10.80
2019-03-09T10:36:28.324Z,10.90
2019-03-09T10:39:01.866Z,10.90
2019-03-09T10:41:35.515Z,11.10
2019-03-09T10:44:10.111Z,11.20
2019-03-09T10:46:43.803Z,11.20
2019-03-09T10:49:17.413Z,11.30
2019-03-09T10:51:51.067Z,11.30
2019-03-09T10:54:35.570Z,11.30
2019-03-09T10:56:59.106Z,11.30
2019-03-09T10:59:32.816Z,11.40
2019-03-09T11:02:06.534Z,11.40
2019-03-09T11:04:40.115Z,11.10
2019-03-09T11:07:13.701Z,11.00
2019-03-09T11:09:47.345Z,11.10
2019-03-09T11:12:21.816Z,11.10
2019-03-09T11:14:56.139Z,11.10
2019-03-09T11:17:29.638Z,11.10
2019-03-09T11:20:03.237Z,11.20
2019-03-09T11:22:36.967Z,11.30
2019-03-09T11:25:10.615Z,11.30
2019-03-09T11:27:44.290Z,11.10
2019-03-09T11:30:23.580Z,11.20
2019-03-09T11:32:57.260Z,11.30
2019-03-09T11:35:32.788Z,11.40
2019-03-09T11:38:04.613Z,11.50
2019-03-09T11:40:38.246Z,11.60
2019-03-09T11:43:11.815Z,11.60
2019-03-09T11:45:45.413Z,11.60
2019-03-09T11:48:19.991Z,11.60
2019-03-09T11:50:53.688Z,11.60
2019-03-09T11:53:27.336Z,11.60
2019-03-09T11:56:01.651Z,11.70
2019-03-09T11:58:35.228Z,11.60
2019-03-09T12:01:08.862Z,11.70
2019-03-09T12:03:42.397Z,11.80
2019-03-09T12:06:16.029Z,11.80
2019-03-09T12:08:49.775Z,11.80
2019-03-09T12:11:23.491Z,11.80
2019-03-09T12:13:57.099Z,11.70
2019-03-09T12:16:30.843Z,11.70
2019-03-09T12:19:04.458Z,11.80
2019-03-09T12:21:38.071Z,11.80
2019-03-09T12:24:16.373Z,11.60
2019-03-09T12:26:46.202Z,11.50
2019-03-09T12:29:19.904Z,11.50
2019-03-09T12:31:54.217Z,11.60
2019-03-09T12:34:28.027Z,11.60
2019-03-09T12:37:01.695Z,11.60
2019-03-09T12:39:35.264Z,11.60
2019-03-09T12:42:09.091Z,11.60
2019-03-09T12:44:42.680Z,11.60
2019-03-09T12:47:16.340Z,11.60
2019-03-09T12:49:49.954Z,11.50
2019-03-09T12:52:24.350Z,11.70
2019-03-09T12:54:57.944Z,11.70
2019-03-09T12:57:32.287Z,11.80
2019-03-09T13:00:06.892Z,11.80
2019-03-09T13:02:41.258Z,11.70
2019-03-09T13:05:14.998Z,11.70
2019-03-09T13:07:49.580Z,11.80
2019-03-09T13:10:23.287Z,11.80
2019-03-09T13:12:56.837Z,11.80
2019-03-09T13:15:30.440Z,12.00
2019-03-09T13:18:04.774Z,12.30
2019-03-09T13:20:38.492Z,12.30
2019-03-09T13:23:12.075Z,12.40
2019-03-09T13:25:45.648Z,12.20
2019-03-09T13:28:19.275Z,12.20
2019-03-09T13:30:52.862Z,12.10
2019-03-09T13:33:26.650Z,12.10
2019-03-09T13:36:00.257Z,12.00
2019-03-09T13:38:33.996Z,11.90
2019-03-09T13:41:07.615Z,12.10
2019-03-09T13:43:41.202Z,12.10
2019-03-09T13:46:14.923Z,12.20
2019-03-09T13:48:48.632Z,12.20
2019-03-09T13:51:22.426Z,12.40
2019-03-09T13:53:56.004Z,12.20
2019-03-09T13:56:29.670Z,12.00
2019-03-09T13:59:03.225Z,11.90
2019-03-09T14:01:36.825Z,11.80
2019-03-09T14:04:10.495Z,11.80
2019-03-09T14:06:44.099Z,11.80
2019-03-09T14:09:18.459Z,11.80
2019-03-09T14:11:52.029Z,11.80
2019-03-09T14:14:25.652Z,11.80
2019-03-09T14:16:59.415Z,11.70
2019-03-09T14:19:32.959Z,11.80
2019-03-09T14:22:06.669Z,11.60
2019-03-09T14:24:40.367Z,11.50
2019-03-09T14:27:15.221Z,11.40
2019-03-09T14:29:47.570Z,11.40
2019-03-09T14:32:21.149Z,11.40
2019-03-09T14:34:55.585Z,11.30
2019-03-09T14:37:29.269Z,11.20
2019-03-09T14:40:02.877Z,11.20
2019-03-09T14:42:36.455Z,11.20
2019-03-09T14:45:19.692Z,11.30
2019-03-09T14:47:53.485Z,11.30
2019-03-09T14:50:28.083Z,11.30
2019-03-09T14:53:02.607Z,11.40
2019-03-09T14:55:36.345Z,11.40
2019-03-09T14:58:10.781Z,11.40
2019-03-09T15:00:44.416Z,11.30
2019-03-09T15:03:18.107Z,11.30
2019-03-09T15:05:51.786Z,11.40
2019-03-09T15:08:25.548Z,11.50
2019-03-09T15:11:00.120Z,11.70
2019-03-09T15:13:33.819Z,11.60
2019-03-09T15:16:07.460Z,11.60
2019-03-09T15:18:41.265Z,11.70
2019-03-09T15:21:14.955Z,11.60
2019-03-09T15:23:48.588Z,11.50
2019-03-09T15:26:23.070Z,11.60
2019-03-09T15:28:56.784Z,11.50
2019-03-09T15:31:30.483Z,11.40
2019-03-09T15:34:04.327Z,11.40
2019-03-09T15:36:37.857Z,11.40
2019-03-09T15:39:11.726Z,11.30
2019-03-09T15:41:45.282Z,11.30
2019-03-09T15:44:18.828Z,11.30
2019-03-09T15:46:53.388Z,11.40
2019-03-09T15:49:26.903Z,11.40
2019-03-09T15:52:00.611Z,11.30
2019-03-09T15:54:34.192Z,11.30
2019-03-09T15:57:07.741Z,11.30
2019-03-09T15:59:41.535Z,11.30
2019-03-09T16:02:15.091Z,11.30
2019-03-09T16:04:48.707Z,11.30
2019-03-09T16:07:22.487Z,11.30
2019-03-09T16:09:56.219Z,11.40
2019-03-09T16:12:29.852Z,11.30
2019-03-09T16:15:03.441Z,11.20
2019-03-09T16:17:37.058Z,11.20
2019-03-09T16:23:00.560Z,11.30
2019-03-09T16:25:34.968Z,11.40
2019-03-09T16:28:08.744Z,11.40
2019-03-09T16:30:42.351Z,11.30
2019-03-09T16:33:15.973Z,11.30
2019-03-09T16:35:50.446Z,11.40
2019-03-09T16:38:24.192Z,11.40
2019-03-09T16:40:58.515Z,11.40
2019-03-09T16:43:32.130Z,11.40
2019-03-09T16:46:05.659Z,11.40
2019-03-09T16:48:39.390Z,11.40
2019-03-09T16:51:13.119Z,11.40
2019-03-09T16:53:46.842Z,11.30
2019-03-09T16:56:20.435Z,11.30
2019-03-09T16:58:54.265Z,11.30
2019-03-09T17:01:27.932Z,11.30
2019-03-09T17:04:01.768Z,11.30
2019-03-09T17:06:35.488Z,11.30
2019-03-09T17:09:09.855Z,11.30
2019-03-09T17:11:43.440Z,11.20
2019-03-09T17:14:17.348Z,11.20
2019-03-09T17:16:51.129Z,11.20
2019-03-09T17:19:25.562Z,11.10
2019-03-09T17:21:59.216Z,11.10
2019-03-09T17:24:32.899Z,11.10
2019-03-09T17:27:07.206Z,11.10
2019-03-09T17:29:40.899Z,11.10
2019-03-09T17:32:14.696Z,11.10
2019-03-09T17:34:48.246Z,11.10
2019-03-09T17:37:22.858Z,11.00
2019-03-09T17:39:57.252Z,11.10
2019-03-09T17:42:31.028Z,11.00
2019-03-09T17:45:05.745Z,11.10
2019-03-09T17:47:39.491Z,11.10
2019-03-09T17:50:13.826Z,11.20
2019-03-09T17:52:47.370Z,11.10
2019-03-09T17:55:20.997Z,11.20
2019-03-09T17:57:54.531Z,11.20
2019-03-09T18:00:28.364Z,11.20
2019-03-09T18:03:02.136Z,11.20
2019-03-09T18:05:35.739Z,11.30
2019-03-09T18:08:09.335Z,11.20
2019-03-09T18:10:44.800Z,11.20
2019-03-09T18:13:18.404Z,11.20
2019-03-09T18:15:52.070Z,11.20
2019-03-09T18:18:25.844Z,11.20
2019-03-09T18:21:00.335Z,11.20
2019-03-09T18:23:34.083Z,11.20
2019-03-09T18:26:08.006Z,11.30
2019-03-09T18:28:42.468Z,11.30
2019-03-09T18:31:16.275Z,11.20
2019-03-09T18:33:50.073Z,11.30
2019-03-09T18:36:23.671Z,11.30
2019-03-09T18:38:57.511Z,11.30
2019-03-09T18:41:31.220Z,11.30
2019-03-09T18:44:05.695Z,11.30
2019-03-09T18:46:40.235Z,11.30
2019-03-09T18:49:14.659Z,11.30
2019-03-09T18:51:48.374Z,11.20
2019-03-09T18:54:22.170Z,11.30
2019-03-09T18:56:55.874Z,11.30
2019-03-09T18:59:29.571Z,11.20
2019-03-09T19:02:04.073Z,11.20
2019-03-09T19:04:37.877Z,11.20
2019-03-09T19:07:11.677Z,11.20
2019-03-09T19:09:46.122Z,11.20
2019-03-09T19:12:19.890Z,11.20
2019-03-09T19:14:53.690Z,11.20
2019-03-09T19:17:27.572Z,11.20
2019-03-09T19:20:01.273Z,11.30
2019-03-09T19:22:34.845Z,11.30
2019-03-09T19:25:09.459Z,11.30
2019-03-09T19:27:43.147Z,11.20
2019-03-09T19:30:19.281Z,11.30
2019-03-09T19:33:00.411Z,11.30
2019-03-09T19:35:27.412Z,11.20
2019-03-09T19:38:01.153Z,11.30
2019-03-09T19:40:34.654Z,11.30
2019-03-09T19:43:08.456Z,11.30
2019-03-09T19:45:42.264Z,11.30
2019-03-09T19:48:16.599Z,11.40
2019-03-09T19:50:50.262Z,11.40
2019-03-09T19:53:24.246Z,11.40
2019-03-09T19:55:57.971Z,11.40
2019-03-09T19:58:31.677Z,11.40
2019-03-09T20:01:05.395Z,11.50
2019-03-09T20:03:38.991Z,11.50
2019-03-09T20:06:13.522Z,11.50
2019-03-09T20:08:47.075Z,11.50
2019-03-09T20:11:20.703Z,11.50
2019-03-09T20:13:54.338Z,11.40
2019-03-09T20:16:27.940Z,11.40
2019-03-09T20:19:01.711Z,11.40
2019-03-09T20:21:35.491Z,11.40
2019-03-09T20:24:09.139Z,11.40
2019-03-09T20:26:42.730Z,11.40
2019-03-09T20:29:16.367Z,11.40
2019-03-09T20:31:50.866Z,11.30
2019-03-09T20:34:24.455Z,11.30
2019-03-09T20:36:58.031Z,11.30
2019-03-09T20:39:31.583Z,11.30
2019-03-09T20:42:06.083Z,11.40
2019-03-09T20:44:39.701Z,11.30
2019-03-09T20:47:13.307Z,11.40
2019-03-09T20:49:46.883Z,11.30
2019-03-09T20:52:21.414Z,11.30
2019-03-09T20:54:55.756Z,11.20
2019-03-09T20:57:29.306Z,11.20
2019-03-09T21:00:02.949Z,11.20
2019-03-09T21:02:36.531Z,11.10
2019-03-09T21:05:10.167Z,11.10
2019-03-09T21:07:44.682Z,11.10
2019-03-09T21:10:19.019Z,11.00
2019-03-09T21:13:08.299Z,11.00
2019-03-09T21:15:42.046Z,11.00
2019-03-09T21:18:15.785Z,11.10
2019-03-09T21:20:49.369Z,11.00
2019-03-09T21:23:22.969Z,11.00
2019-03-09T21:25:56.700Z,11.00
2019-03-09T21:28:30.253Z,11.00
2019-03-09T21:31:04.070Z,11.00
2019-03-09T21:33:37.740Z,11.00
2019-03-09T21:36:11.532Z,11.00
2019-03-09T21:38:45.399Z,11.00
2019-03-09T21:41:19.022Z,11.00
2019-03-09T21:43:52.616Z,11.00
2019-03-09T21:46:26.467Z,11.00
2019-03-09T21:48:59.996Z,11.00
2019-03-09T21:51:33.638Z,11.00
2019-03-09T21:54:07.217Z,11.00
2019-03-09T21:56:40.915Z,11.00
2019-03-09T21:59:14.522Z,11.00
2019-03-09T22:01:48.850Z,11.00
2019-03-09T22:04:22.648Z,10.90
2019-03-09T22:06:56.426Z,11.00
2019-03-09T22:09:30.180Z,11.00
2019-03-09T22:12:03.774Z,11.00
2019-03-09T22:14:37.326Z,11.00
2019-03-09T22:17:10.947Z,11.00
2019-03-09T22:19:45.232Z,11.00
2019-03-09T22:22:18.790Z,11.00
2019-03-09T22:24:52.564Z,11.00
2019-03-09T22:27:26.309Z,11.00
2019-03-09T22:29:59.835Z,11.00
2019-03-09T22:32:33.426Z,11.00
2019-03-09T22:35:07.259Z,11.00
2019-03-09T22:37:41.596Z,11.00
2019-03-09T22:40:15.258Z,11.00
2019-03-09T22:42:48.825Z,11.00
2019-03-09T22:45:22.408Z,11.00
2019-03-09T22:47:56.744Z,11.00
2019-03-09T22:50:30.323Z,11.00
2019-03-09T22:53:03.899Z,11.00
2019-03-09T22:55:37.495Z,11.00
2019-03-09T22:58:11.147Z,11.00
2019-03-09T23:00:44.932Z,10.90
2019-03-09T23:03:18.777Z,10.90
2019-03-09T23:05:52.319Z,10.90
2019-03-09T23:08:26.061Z,10.90
2019-03-09T23:10:59.869Z,10.90
2019-03-09T23:13:33.451Z,10.90
2019-03-09T23:16:07.231Z,10.90
2019-03-09T23:18:40.834Z,10.90
2019-03-09T23:21:14.432Z,10.90
2019-03-09T23:23:48.087Z,10.90
2019-03-09T23:26:21.717Z,10.90
2019-03-09T23:28:55.565Z,10.90
2019-03-09T23:31:29.306Z,10.90
2019-03-09T23:34:02.875Z,10.90
2019-03-09T23:36:36.604Z,10.90
2019-03-09T23:39:10.292Z,10.90
2019-03-09T23:41:43.880Z,10.90
2019-03-09T23:44:17.551Z,10.80
2019-03-09T23:46:51.081Z,10.80
2019-03-09T23:49:24.679Z,10.90
2019-03-09T23:51:58.479Z,10.90
2019-03-09T23:54:32.239Z,10.90
2019-03-09T23:57:06.022Z,10.90
2019-03-09T23:59:39.803Z,10.90
